Time;durP1;ratioP1;P1;durP2;ratioP2;P2;SDS_P1;SDS_P2;PMS_P1;PMS_P2;Temp;Humidity;BMP_temperature;BMP_pressure;BME280_temperature;BME280_humidity;BME280_pressure;Samples;Min_cycle;Max_cycle;Signal;HPM_P1;HPM_P2
2022/03/08 00:02:22;;;;;;;;;36.67;32.33;;;;;4.61;45.47;101525.56;5108877;27;45483;-57
2022/03/08 00:04:48;;;;;;;;;41.50;34.50;;;;;4.59;44.99;101519.53;5104122;27;45398;-60
2022/03/08 00:07:14;;;;;;;;;49.25;40.25;;;;;4.59;44.75;101518.69;5101449;27;45527;-58
2022/03/08 00:09:40;;;;;;;;;47.00;39.67;;;;;4.58;45.38;101514.31;5107527;27;45386;-59
2022/03/08 00:12:07;;;;;;;;;40.33;31.33;;;;;4.56;44.58;101516.13;5110976;27;45261;-58
2022/03/08 00:14:34;;;;;;;;;56.67;42.67;;;;;4.54;44.84;101510.94;5110426;27;45422;-58
2022/03/08 00:17:00;;;;;;;;;53.67;35.00;;;;;4.54;45.27;101510.06;5089966;27;45423;-58
2022/03/08 00:19:26;;;;;;;;;48.00;36.50;;;;;4.51;45.04;101516.22;5107712;27;45409;-59
2022/03/08 00:21:52;;;;;;;;;37.00;33.25;;;;;4.49;45.50;101511.03;5101845;27;45510;-58
2022/03/08 00:24:18;;;;;;;;;48.33;41.67;;;;;4.47;45.61;101505.00;5109244;27;45321;-59
2022/03/08 00:26:44;;;;;;;;;52.67;36.33;;;;;4.46;45.10;101511.09;5110727;27;45600;-59
2022/03/08 00:29:10;;;;;;;;;49.00;41.67;;;;;4.45;44.88;101500.72;5105210;27;46497;-59
2022/03/08 00:31:35;;;;;;;;;48.67;38.00;;;;;4.44;45.09;101509.44;5107665;27;45502;-60
2022/03/08 00:34:01;;;;;;;;;57.25;38.25;;;;;4.41;45.63;101509.47;5109960;27;45366;-60
2022/03/08 00:36:26;;;;;;;;;45.25;37.50;;;;;4.40;45.60;101513.84;5106069;27;45355;-60
2022/03/08 00:38:52;;;;;;;;;44.00;33.50;;;;;4.37;46.21;101513.06;5109388;27;46251;-59
2022/03/08 00:41:18;;;;;;;;;38.75;29.25;;;;;4.34;45.46;101510.50;5111645;27;45370;-59
2022/03/08 00:43:43;;;;;;;;;40.33;32.67;;;;;4.33;45.51;101503.56;5108882;27;45415;-60
2022/03/08 00:46:10;;;;;;;;;63.00;39.00;;;;;4.33;46.13;101511.38;5107720;27;45583;-55
2022/03/08 00:48:35;;;;;;;;;49.33;36.33;;;;;4.31;45.41;101508.81;5107478;27;45304;-52
2022/03/08 00:51:01;;;;;;;;;58.00;41.00;;;;;4.30;46.00;101512.31;5106037;27;45411;-54
2022/03/08 00:53:27;;;;;;;;;40.33;34.00;;;;;4.30;45.82;101511.47;5111008;27;45220;-59
2022/03/08 00:55:52;;;;;;;;;40.33;36.33;;;;;4.29;45.96;101501.94;5108767;27;45241;-59
2022/03/08 00:58:18;;;;;;;;;45.00;37.00;;;;;4.28;46.11;101508.03;5108149;27;46204;-56
2022/03/08 01:00:43;;;;;;;;;37.67;31.00;;;;;4.26;46.33;101502.81;5103949;27;45574;-57
2022/03/08 01:03:09;;;;;;;;;41.33;37.33;;;;;4.23;46.00;101497.69;5110003;27;45373;-58
2022/03/08 01:05:35;;;;;;;;;45.00;33.00;;;;;4.23;46.09;101494.22;5112143;27;45286;-58
2022/03/08 01:08:01;;;;;;;;;53.00;34.00;;;;;4.22;46.33;101497.72;5109527;27;46346;-53
2022/03/08 01:10:29;;;;;;;;;42.67;30.00;;;;;4.19;46.31;101494.31;5106182;27;45282;-59
2022/03/08 01:12:55;;;;;;;;;41.67;39.33;;;;;4.18;46.03;101492.56;5088963;27;45240;-57
2022/03/08 01:15:24;;;;;;;;;53.00;39.50;;;;;4.18;46.24;101491.69;5112882;27;45565;-59
2022/03/08 01:17:49;;;;;;;;;49.50;33.75;;;;;4.17;46.33;101496.06;5108896;27;45379;-54
2022/03/08 01:20:15;;;;;;;;;51.75;37.75;;;;;4.15;46.45;101492.63;5107034;27;45510;-56
2022/03/08 01:22:41;;;;;;;;;55.25;35.25;;;;;4.13;46.20;101488.34;5107668;27;46546;-57
2022/03/08 01:25:09;;;;;;;;;39.25;28.50;;;;;4.11;46.59;101487.53;5111706;27;45435;-55
2022/03/08 01:27:35;;;;;;;;;47.50;38.00;;;;;4.10;46.42;101491.84;5111293;27;46205;-58
2022/03/08 01:30:01;;;;;;;;;47.00;31.75;;;;;4.09;46.69;101490.13;5108924;27;45412;-58
2022/03/08 01:32:26;;;;;;;;;49.00;37.00;;;;;4.09;46.28;101489.28;5109097;27;45399;-59
2022/03/08 01:34:52;;;;;;;;;46.33;38.67;;;;;4.07;46.24;101484.09;5108216;27;45338;-59
2022/03/08 01:37:18;;;;;;;;;48.00;34.33;;;;;4.06;46.33;101489.34;5111090;27;46104;-59
2022/03/08 01:39:44;;;;;;;;;53.67;36.67;;;;;4.02;46.91;101478.13;5108989;27;45326;-59
2022/03/08 01:42:12;;;;;;;;;43.67;38.00;;;;;4.03;46.80;101489.41;5110525;27;45297;-60
2022/03/08 01:44:44;;;;;;;;;45.67;37.67;;;;;4.01;46.86;101476.41;5109188;27;45534;-56
2022/03/08 01:47:16;;;;;;;;;46.00;33.33;;;;;4.00;46.50;101477.31;5106825;27;45528;-60
2022/03/08 01:49:43;;;;;;;;;45.00;33.67;;;;;3.99;46.75;101483.41;5105612;27;45470;-58
2022/03/08 01:52:09;;;;;;;;;52.00;40.33;;;;;3.97;46.79;101479.97;5110586;27;45383;-60
2022/03/08 01:54:35;;;;;;;;;43.67;34.33;;;;;3.96;46.64;101480.03;5110751;27;45309;-61
2022/03/08 01:57:01;;;;;;;;;52.00;38.33;;;;;3.95;46.72;101478.28;5108100;27;46152;-63
2022/03/08 01:59:27;;;;;;;;;49.33;35.67;;;;;3.93;47.26;101473.94;5107302;27;45303;-59
2022/03/08 02:01:52;;;;;;;;;54.67;38.00;;;;;3.93;47.19;101471.34;5106590;27;45497;-59
2022/03/08 02:04:18;;;;;;;;;44.00;35.67;;;;;3.92;46.74;101474.84;5104685;27;45339;-59
2022/03/08 02:06:44;;;;;;;;;38.00;34.33;;;;;3.89;46.63;101472.31;5110327;27;45309;-59
2022/03/08 02:09:11;;;;;;;;;41.75;32.75;;;;;3.89;47.03;101472.31;5109487;27;45223;-59
2022/03/08 02:11:37;;;;;;;;;43.33;34.33;;;;;3.87;47.70;101470.59;5108406;27;45399;-59
2022/03/08 02:14:03;;;;;;;;;48.00;32.33;;;;;3.85;47.40;101470.63;5100233;27;45691;-58
2022/03/08 02:16:30;;;;;;;;;50.67;37.67;;;;;3.85;47.26;101467.19;5102790;27;45352;-58
2022/03/08 02:18:55;;;;;;;;;44.00;37.33;;;;;3.85;46.78;101475.00;5107209;27;45442;-59
2022/03/08 02:21:21;;;;;;;;;49.67;41.00;;;;;3.83;46.91;101458.53;5110291;27;45247;-58
2022/03/08 02:23:47;;;;;;;;;33.00;29.67;;;;;3.84;47.08;101463.72;5108512;27;46331;-58
2022/03/08 02:26:12;;;;;;;;;47.33;34.33;;;;;3.87;47.17;101460.19;5104734;27;46142;-58
2022/03/08 02:28:39;;;;;;;;;44.00;33.00;;;;;3.84;46.94;101457.66;5089212;27;45406;-58
2022/03/08 02:31:04;;;;;;;;;61.33;38.00;;;;;3.85;47.25;101451.53;5075909;27;45426;-58
2022/03/08 02:33:30;;;;;;;;;47.67;37.67;;;;;3.84;46.97;101455.91;5080601;28;45309;-58
2022/03/08 02:35:55;;;;;;;;;46.67;37.33;;;;;3.84;47.29;101447.22;5080011;27;45455;-58
2022/03/08 02:38:21;;;;;;;;;40.00;36.00;;;;;3.83;47.26;101445.50;5080434;28;45248;-58
2022/03/08 02:40:47;;;;;;;;;57.00;42.00;;;;;3.82;47.32;101451.63;5084062;27;45237;-58
2022/03/08 02:43:13;;;;;;;;;53.00;35.67;;;;;3.81;47.29;101452.50;5096026;27;45408;-58
2022/03/08 02:45:39;;;;;;;;;44.33;37.33;;;;;3.79;47.23;101442.13;5083336;27;46000;-59
2022/03/08 02:48:05;;;;;;;;;58.67;41.00;;;;;3.79;47.56;101442.13;5083499;27;45327;-58
2022/03/08 02:50:31;;;;;;;;;41.67;35.67;;;;;3.76;47.04;101433.50;5078856;27;45259;-59
2022/03/08 02:52:57;;;;;;;;;42.00;35.33;;;;;3.77;47.57;101440.41;5083755;28;45395;-59
2022/03/08 02:55:26;;;;;;;;;47.00;33.33;;;;;3.76;47.44;101434.34;5083159;27;45390;-59
2022/03/08 02:57:52;;;;;;;;;44.00;37.00;;;;;3.75;47.46;101431.78;5083485;27;45353;-59
2022/03/08 03:00:19;;;;;;;;;42.67;36.00;;;;;3.72;47.61;101429.25;5083366;28;45299;-59
2022/03/08 03:02:46;;;;;;;;;51.33;37.33;;;;;3.72;47.56;101429.25;5083478;28;45490;-59
2022/03/08 03:05:12;;;;;;;;;47.00;31.00;;;;;3.71;47.46;101424.91;5083210;27;45325;-60
2022/03/08 03:07:38;;;;;;;;;45.00;35.00;;;;;3.69;46.90;101418.88;5083308;28;45318;-60
2022/03/08 03:10:08;;;;;;;;;48.00;37.33;;;;;3.69;47.46;101422.31;5083381;28;45258;-60
2022/03/08 03:12:34;;;;;;;;;45.67;39.67;;;;;3.64;47.57;101417.22;5083204;28;45388;-60
2022/03/08 03:15:00;;;;;;;;;41.00;33.67;;;;;3.66;47.44;101419.78;5078182;27;46255;-60
2022/03/08 03:17:25;;;;;;;;;51.00;36.00;;;;;3.65;47.72;101423.28;5083144;28;45314;-60
2022/03/08 03:19:50;;;;;;;;;47.00;37.00;;;;;3.62;47.78;101421.59;5083105;28;45416;-60
2022/03/08 03:22:16;;;;;;;;;44.00;30.33;;;;;3.60;47.76;101409.50;5083288;27;45240;-60
2022/03/08 03:24:41;;;;;;;;;51.00;38.33;;;;;3.60;47.80;101417.31;5082805;27;45647;-60
2022/03/08 03:27:07;;;;;;;;;58.00;37.00;;;;;3.58;47.66;101409.53;5082883;28;45197;-60
2022/03/08 03:29:32;;;;;;;;;49.33;38.00;;;;;3.56;47.77;101413.91;5084782;27;45484;-60
2022/03/08 03:31:58;;;;;;;;;53.33;41.00;;;;;3.57;48.00;101405.22;5094980;27;45648;-60
2022/03/08 03:34:23;;;;;;;;;51.33;37.00;;;;;3.56;47.89;101406.09;5082647;27;45174;-60
2022/03/08 03:36:49;;;;;;;;;62.33;41.00;;;;;3.56;47.68;101406.09;5082987;28;45231;-60
2022/03/08 03:39:14;;;;;;;;;47.00;39.67;;;;;3.56;47.83;101400.88;5085995;27;45237;-60
2022/03/08 03:41:40;;;;;;;;;44.00;32.00;;;;;3.57;48.03;101404.34;5091065;27;45370;-60
2022/03/08 03:44:05;;;;;;;;;53.33;37.67;;;;;3.54;47.86;101393.97;5087616;27;45241;-60
2022/03/08 03:46:31;;;;;;;;;49.33;38.67;;;;;3.51;48.34;101394.91;5082591;28;45382;-60
2022/03/08 03:48:56;;;;;;;;;43.67;32.33;;;;;3.50;48.00;101394.94;5082756;27;45380;-59
2022/03/08 03:51:22;;;;;;;;;51.33;42.00;;;;;3.48;48.10;101404.53;5082774;27;45366;-60
2022/03/08 03:53:47;;;;;;;;;53.00;36.00;;;;;3.46;48.35;101398.47;5081572;27;46140;-60
2022/03/08 03:56:13;;;;;;;;;52.67;37.33;;;;;3.41;48.43;101403.78;5082388;27;45341;-60
2022/03/08 03:58:39;;;;;;;;;46.33;39.00;;;;;3.38;48.29;101397.75;5082570;28;45351;-60
2022/03/08 04:01:04;;;;;;;;;42.67;31.00;;;;;3.37;48.88;101404.72;5082414;28;45430;-60
2022/03/08 04:03:31;;;;;;;;;53.67;38.33;;;;;3.38;48.46;101405.56;5082107;27;45474;-60
2022/03/08 04:05:56;;;;;;;;;49.33;39.00;;;;;3.37;48.88;101407.31;5082496;28;45236;-60
2022/03/08 04:08:22;;;;;;;;;45.00;35.00;;;;;3.35;48.40;101402.16;5082518;28;45257;-60
2022/03/08 04:10:49;;;;;;;;;45.00;34.67;;;;;3.35;48.61;101404.75;5082232;28;45501;-60
2022/03/08 04:13:15;;;;;;;;;39.00;29.67;;;;;3.34;48.24;101396.97;5082046;27;46440;-60
2022/03/08 04:15:41;;;;;;;;;55.00;41.33;;;;;3.34;48.12;101400.44;5082130;28;45252;-60
2022/03/08 04:18:07;;;;;;;;;48.67;36.00;;;;;3.31;48.49;101394.41;5082353;27;45333;-60
2022/03/08 04:20:33;;;;;;;;;47.33;38.67;;;;;3.31;48.53;101399.63;5082241;28;45382;-60
2022/03/08 04:22:58;;;;;;;;;42.00;36.00;;;;;3.32;48.76;101411.78;5082076;28;45423;-59
2022/03/08 04:25:25;;;;;;;;;46.00;40.33;;;;;3.31;48.71;101400.47;5081293;27;45324;-60
2022/03/08 04:27:51;;;;;;;;;40.67;26.67;;;;;3.32;48.73;101390.94;5081566;28;45433;-60
2022/03/08 04:30:17;;;;;;;;;60.00;42.33;;;;;3.30;49.17;101393.56;5090135;27;45240;-60
2022/03/08 04:32:42;;;;;;;;;24.33;17.67;;;;;3.31;48.03;101397.88;5102093;27;45419;-60
2022/03/08 04:35:09;;;;;;;;;44.33;36.33;;;;;3.30;48.66;101395.31;5102540;27;45270;-60
2022/03/08 04:37:34;;;;;;;;;51.33;36.33;;;;;3.29;48.88;101386.63;5102323;27;45398;-60
2022/03/08 04:40:00;;;;;;;;;42.67;36.33;;;;;3.29;48.74;101388.38;5094552;27;45228;-60
2022/03/08 04:42:26;;;;;;;;;52.00;33.00;;;;;3.29;48.80;101384.03;5064113;27;45383;-60
2022/03/08 04:44:52;;;;;;;;;40.00;36.67;;;;;3.29;48.80;101388.38;5102110;27;45406;-59
2022/03/08 04:47:17;;;;;;;;;50.33;38.00;;;;;3.29;48.54;101385.78;5101895;27;45386;-60
2022/03/08 04:49:43;;;;;;;;;42.33;32.00;;;;;3.28;48.24;101387.53;5102321;27;45399;-60
2022/03/08 04:52:08;;;;;;;;;58.33;42.00;;;;;3.28;48.56;101382.31;5101913;27;45437;-60
2022/03/08 04:54:34;;;;;;;;;50.00;36.00;;;;;3.25;48.98;101390.19;5102307;27;45421;-59
2022/03/08 04:57:03;;;;;;;;;47.67;34.33;;;;;3.26;49.04;101381.50;5101747;27;45321;-60
2022/03/08 04:59:28;;;;;;;;;50.00;37.33;;;;;3.25;49.09;101382.38;5102195;27;45223;-60
2022/03/08 05:01:54;;;;;;;;;45.33;39.00;;;;;3.25;48.64;101392.81;5101556;27;46201;-60
2022/03/08 05:04:21;;;;;;;;;42.67;33.67;;;;;3.24;48.49;101387.59;5101672;27;45355;-60
2022/03/08 05:06:47;;;;;;;;;47.00;40.33;;;;;3.21;48.65;101377.25;5101831;27;45343;-60
2022/03/08 05:09:12;;;;;;;;;39.67;34.67;;;;;3.22;48.70;101378.97;5102083;27;45601;-59
2022/03/08 05:11:38;;;;;;;;;50.00;37.67;;;;;3.20;48.84;101376.41;5101510;27;45434;-60
2022/03/08 05:14:04;;;;;;;;;54.67;42.67;;;;;3.21;49.13;101380.72;5101730;27;45349;-60
2022/03/08 05:16:29;;;;;;;;;44.00;35.25;;;;;3.20;49.01;101378.16;5101652;27;45310;-59
2022/03/08 05:18:55;;;;;;;;;49.00;35.00;;;;;3.18;49.02;101380.78;5101966;27;45320;-60
2022/03/08 05:21:20;;;;;;;;;58.33;39.67;;;;;3.17;49.32;101378.22;5101368;27;45328;-60
2022/03/08 05:23:46;;;;;;;;;54.00;36.33;;;;;3.16;49.12;101387.78;5101796;27;45452;-60
2022/03/08 05:26:11;;;;;;;;;58.67;43.67;;;;;3.15;49.02;101380.81;5101484;27;45239;-59
2022/03/08 05:28:37;;;;;;;;;59.00;45.00;;;;;3.12;49.02;101378.28;5101765;27;45330;-59
2022/03/08 05:31:02;;;;;;;;;62.00;41.00;;;;;3.12;49.22;101375.69;5100597;27;46203;-60
2022/03/08 05:33:28;;;;;;;;;45.50;32.75;;;;;3.11;48.96;101367.91;5081070;28;45310;-60
2022/03/08 05:35:53;;;;;;;;;52.00;41.00;;;;;3.08;49.42;101372.28;5081157;28;45166;-59
2022/03/08 05:38:18;;;;;;;;;51.75;34.75;;;;;3.08;49.09;101371.41;5081172;28;45311;-59
2022/03/08 05:40:45;;;;;;;;;51.00;42.00;;;;;3.08;49.14;101372.28;5084155;27;46203;-60
2022/03/08 05:43:11;;;;;;;;;49.33;36.33;;;;;3.07;49.70;101367.09;5094177;27;45164;-59
2022/03/08 05:45:37;;;;;;;;;44.33;35.67;;;;;3.06;49.31;101374.03;5081069;28;45499;-59
2022/03/08 05:48:02;;;;;;;;;43.00;31.00;;;;;3.04;49.62;101368.00;5080819;28;45337;-59
2022/03/08 05:50:28;;;;;;;;;52.33;40.00;;;;;3.04;49.21;101365.41;5080578;28;45446;-60
2022/03/08 05:52:53;;;;;;;;;40.00;35.00;;;;;3.03;49.53;101371.50;5080989;28;45437;-59
2022/03/08 05:55:19;;;;;;;;;62.00;42.00;;;;;3.05;49.27;101374.06;5080763;28;45359;-60
2022/03/08 05:57:45;;;;;;;;;57.00;41.00;;;;;3.03;49.31;101363.69;5080640;28;45512;-60
2022/03/08 06:00:11;;;;;;;;;48.33;34.67;;;;;3.02;49.40;101366.34;5080621;27;45356;-60
2022/03/08 06:02:37;;;;;;;;;50.67;39.00;;;;;3.02;49.71;101366.34;5087304;27;45253;-59
2022/03/08 06:05:03;;;;;;;;;39.33;35.67;;;;;3.00;49.51;101373.28;5101069;27;45335;-60
2022/03/08 06:07:28;;;;;;;;;53.00;36.00;;;;;3.01;49.66;101370.69;5101470;27;45402;-60
2022/03/08 06:09:54;;;;;;;;;45.67;36.00;;;;;3.01;49.51;101375.03;5100786;27;45510;-60
2022/03/08 06:12:19;;;;;;;;;56.67;42.00;;;;;2.99;49.55;101380.25;5100715;27;45265;-60
2022/03/08 06:14:45;;;;;;;;;59.33;41.67;;;;;2.99;50.08;101382.84;5100971;27;45295;-60
2022/03/08 06:17:10;;;;;;;;;53.33;37.00;;;;;3.00;49.76;101378.50;5102130;27;45474;-59
2022/03/08 06:19:36;;;;;;;;;59.00;42.33;;;;;3.00;49.76;101384.59;5104301;27;46157;-59
2022/03/08 06:22:02;;;;;;;;;54.00;42.33;;;;;3.00;49.50;101381.09;5099358;27;45338;-60
2022/03/08 06:24:28;;;;;;;;;49.00;41.67;;;;;3.02;49.66;101384.56;5084053;28;45375;-60
2022/03/08 06:26:53;;;;;;;;;63.00;43.33;;;;;3.02;50.43;101385.41;5085265;27;45366;-59
2022/03/08 06:29:19;;;;;;;;;54.67;43.00;;;;;3.03;50.01;101384.53;5091228;27;45372;-59
2022/03/08 06:31:45;;;;;;;;;58.67;44.67;;;;;3.06;50.21;101388.81;5103997;27;45306;-59
2022/03/08 06:34:10;;;;;;;;;57.67;43.67;;;;;3.06;49.76;101394.88;5083975;28;45328;-60
2022/03/08 06:36:38;;;;;;;;;50.67;38.67;;;;;3.10;50.06;101398.28;5095572;27;45452;-59
2022/03/08 06:39:03;;;;;;;;;51.67;40.33;;;;;3.12;49.59;101385.25;5086606;27;45241;-60
2022/03/08 06:41:29;;;;;;;;;56.00;43.00;;;;;3.13;49.87;101386.94;5099199;27;45349;-60
2022/03/08 06:43:54;;;;;;;;;57.33;45.33;;;;;3.14;50.09;101392.13;5089957;27;45288;-59
2022/03/08 06:46:20;;;;;;;;;55.67;45.00;;;;;3.15;49.48;101393.84;5095472;27;45482;-60
2022/03/08 06:48:45;;;;;;;;;56.00;41.67;;;;;3.19;49.85;101392.06;5090488;27;45433;-59
2022/03/08 06:51:11;;;;;;;;;59.67;44.33;;;;;3.19;49.57;101387.69;5083450;28;45312;-60
2022/03/08 06:53:36;;;;;;;;;55.00;45.33;;;;;3.22;50.12;101382.44;5090048;27;45360;-59
2022/03/08 06:56:02;;;;;;;;;56.00;44.00;;;;;3.24;49.83;101388.50;5090059;27;45304;-59
2022/03/08 06:58:28;;;;;;;;;52.67;42.00;;;;;3.28;49.92;101386.66;5103831;27;46207;-59
2022/03/08 07:00:53;;;;;;;;;59.67;47.67;;;;;3.37;49.66;101394.31;5103360;27;45413;-59
2022/03/08 07:03:19;;;;;;;;;61.00;46.67;;;;;3.46;49.72;101396.72;5080993;27;46479;-59
2022/03/08 07:05:46;;;;;;;;;66.67;42.67;;;;;3.53;49.23;101394.88;5096059;27;45583;-59
2022/03/08 07:08:12;;;;;;;;;59.00;44.33;;;;;3.58;49.72;101382.63;5082363;28;45362;-58
2022/03/08 07:10:37;;;;;;;;;55.00;45.67;;;;;3.64;49.10;101379.91;5082692;27;45327;-59
2022/03/08 07:13:03;;;;;;;;;54.33;41.67;;;;;3.69;49.38;101387.59;5082940;28;45657;-59
2022/03/08 07:15:29;;;;;;;;;51.00;37.67;;;;;3.71;49.47;101389.28;5082307;27;45425;-59
2022/03/08 07:17:54;;;;;;;;;62.00;42.67;;;;;3.79;48.75;101391.72;5082582;27;46305;-59
2022/03/08 07:20:20;;;;;;;;;57.33;42.00;;;;;3.84;49.16;101388.13;5082363;27;45257;-59
2022/03/08 07:22:45;;;;;;;;;62.33;45.33;;;;;3.88;48.98;101388.94;5082844;27;45190;-59
2022/03/08 07:25:11;;;;;;;;;55.67;43.67;;;;;3.90;49.44;101392.38;5082978;27;45232;-59
2022/03/08 07:27:39;;;;;;;;;45.67;40.33;;;;;3.93;48.96;101400.97;5081897;27;45314;-59
2022/03/08 07:30:06;;;;;;;;;52.00;42.33;;;;;3.98;48.63;101402.63;5087275;27;45386;-58
2022/03/08 07:32:32;;;;;;;;;68.00;43.00;;;;;3.99;48.73;101392.19;5089853;27;45363;-58
2022/03/08 07:34:58;;;;;;;;;66.33;46.00;;;;;4.03;48.83;101403.38;5082541;28;45339;-58
2022/03/08 07:37:24;;;;;;;;;53.00;40.33;;;;;4.05;48.91;101401.63;5082596;28;45348;-57
2022/03/08 07:39:49;;;;;;;;;55.00;44.00;;;;;4.06;48.16;101409.41;5085788;27;45325;-58
2022/03/08 07:42:15;;;;;;;;;69.67;44.67;;;;;4.09;48.54;101406.72;5082471;27;45340;-58
2022/03/08 07:44:40;;;;;;;;;60.33;46.67;;;;;4.14;49.16;101410.09;5082821;27;45576;-58
2022/03/08 07:47:08;;;;;;;;;47.00;41.00;;;;;4.14;48.65;101414.44;5082119;28;45164;-58
2022/03/08 07:49:34;;;;;;;;;64.00;44.00;;;;;4.17;48.35;101416.97;5081688;28;45454;-58
2022/03/08 07:51:59;;;;;;;;;68.00;44.33;;;;;4.22;48.41;101414.28;5096105;27;45449;-58
2022/03/08 07:54:25;;;;;;;;;63.33;45.33;;;;;4.29;48.64;101421.09;5081810;27;45334;-58
2022/03/08 07:56:50;;;;;;;;;50.00;41.00;;;;;4.33;48.61;101413.13;5102399;27;45382;-58
2022/03/08 07:59:16;;;;;;;;;60.67;42.67;;;;;4.37;47.98;101420.00;5101991;27;45347;-58
2022/03/08 08:01:41;;;;;;;;;60.67;46.33;;;;;4.46;48.04;101421.56;5102163;27;45314;-58
2022/03/08 08:04:07;;;;;;;;;60.00;44.67;;;;;4.55;47.67;101421.34;5102669;27;45227;-58
2022/03/08 08:06:32;;;;;;;;;56.67;41.33;;;;;4.62;47.59;101422.91;5089360;27;45321;-58
2022/03/08 08:08:58;;;;;;;;;65.67;43.33;;;;;4.69;48.00;101418.41;5081678;27;45294;-58
2022/03/08 08:11:23;;;;;;;;;64.00;45.67;;;;;4.74;48.10;101408.72;5081487;28;45240;-59
2022/03/08 08:13:50;;;;;;;;;51.00;40.33;;;;;4.82;47.99;101414.59;5082376;27;45292;-58
2022/03/08 08:16:17;;;;;;;;;59.67;40.33;;;;;4.90;47.32;101419.63;5081723;27;45635;-58
2022/03/08 08:18:43;;;;;;;;;63.33;47.33;;;;;4.99;47.52;101425.47;5081785;28;45418;-58
2022/03/08 08:21:09;;;;;;;;;58.33;47.00;;;;;5.10;47.12;101416.50;5081655;28;45410;-58
2022/03/08 08:23:34;;;;;;;;;60.00;47.33;;;;;5.17;47.71;101416.31;5081877;28;45308;-58
2022/03/08 08:26:00;;;;;;;;;61.67;43.33;;;;;5.24;47.25;101411.78;5081302;28;45414;-58
2022/03/08 08:28:25;;;;;;;;;50.00;41.67;;;;;5.26;47.13;101416.06;5081678;28;45370;-58
2022/03/08 08:30:51;;;;;;;;;73.33;51.67;;;;;5.31;47.58;101413.34;5094433;27;45220;-58
2022/03/08 08:33:16;;;;;;;;;57.00;43.33;;;;;5.39;47.53;101411.38;5082652;27;45260;-58
2022/03/08 08:35:42;;;;;;;;;62.67;46.00;;;;;5.47;47.07;101417.25;5081680;27;45227;-58
2022/03/08 08:38:07;;;;;;;;;70.33;48.67;;;;;5.60;47.24;101425.59;5081396;28;45339;-59
2022/03/08 08:40:36;;;;;;;;;63.67;47.00;;;;;5.70;46.83;101423.63;5084261;27;45312;-58
2022/03/08 08:43:03;;;;;;;;;55.00;44.67;;;;;5.77;46.28;101428.63;5081546;27;45278;-58
2022/03/08 08:45:30;;;;;;;;;63.67;44.67;;;;;5.84;45.50;101430.13;5081307;27;45344;-58
2022/03/08 08:47:55;;;;;;;;;60.33;44.67;;;;;5.91;46.35;101432.63;5081029;27;45346;-58
2022/03/08 08:50:21;;;;;;;;;66.00;44.67;;;;;5.95;46.60;101436.88;5081601;28;45413;-58
2022/03/08 08:52:46;;;;;;;;;64.33;48.33;;;;;5.99;46.18;101435.88;5080441;27;45241;-58
2022/03/08 08:55:12;;;;;;;;;71.33;51.00;;;;;6.07;45.76;101434.75;5081471;28;46351;-58
2022/03/08 08:57:38;;;;;;;;;72.33;52.67;;;;;6.13;45.83;101429.34;5081152;28;45270;-58
2022/03/08 09:00:06;;;;;;;;;76.33;51.33;;;;;6.25;45.37;101428.13;5081460;28;45160;-58
2022/03/08 09:02:32;;;;;;;;;60.67;48.00;;;;;6.31;45.53;101427.91;5080743;27;45502;-59
2022/03/08 09:04:57;;;;;;;;;68.33;51.67;;;;;6.37;46.10;101421.63;5081200;27;45320;-58
2022/03/08 09:07:23;;;;;;;;;67.67;47.33;;;;;6.42;45.49;101427.59;5081090;27;45273;-59
2022/03/08 09:09:49;;;;;;;;;69.00;49.67;;;;;6.48;45.57;101424.81;5081502;28;45310;-58
2022/03/08 09:12:14;;;;;;;;;60.67;44.00;;;;;6.54;45.17;101423.72;5080411;27;45310;-59
2022/03/08 09:14:40;;;;;;;;;64.67;46.33;;;;;6.62;45.51;101419.09;5081114;27;45349;-59
2022/03/08 09:17:05;;;;;;;;;64.33;49.00;;;;;6.66;45.78;101412.88;5081028;28;45339;-59
2022/03/08 09:19:31;;;;;;;;;61.00;43.67;;;;;6.69;45.20;101412.78;5081157;27;45299;-59
2022/03/08 09:21:56;;;;;;;;;60.00;46.67;;;;;6.74;44.61;101416.09;5080661;27;45455;-59
2022/03/08 09:24:22;;;;;;;;;64.67;47.33;;;;;6.83;45.32;101413.19;5080807;27;46014;-59
2022/03/08 09:26:47;;;;;;;;;58.67;43.00;;;;;6.94;45.05;101408.44;5080660;28;45364;-60
2022/03/08 09:29:13;;;;;;;;;61.33;47.00;;;;;7.01;44.59;101414.31;5081135;28;45207;-59
2022/03/08 09:31:38;;;;;;;;;65.00;47.00;;;;;7.08;45.17;101413.22;5095057;27;45596;-59
2022/03/08 09:34:04;;;;;;;;;69.00;47.00;;;;;7.14;44.84;101405.16;5080262;28;46056;-59
2022/03/08 09:36:29;;;;;;;;;60.33;45.67;;;;;7.25;44.49;101405.63;5080869;28;45320;-59
2022/03/08 09:38:55;;;;;;;;;62.00;46.00;;;;;7.35;44.43;101407.94;5083094;27;45253;-59
2022/03/08 09:41:21;;;;;;;;;64.00;47.67;;;;;7.39;44.21;101404.28;5082224;27;45513;-59
2022/03/08 09:43:47;;;;;;;;;73.00;49.33;;;;;7.45;44.36;101404.94;5080254;27;45509;-59
2022/03/08 09:46:13;;;;;;;;;68.67;50.33;;;;;7.50;44.13;101403.03;5080131;28;45402;-59
2022/03/08 09:48:38;;;;;;;;;51.50;28.25;;;;;7.56;44.00;101396.69;5080631;28;45342;-59
2022/03/08 09:51:05;;;;;;;;;61.33;49.33;;;;;7.60;44.20;101393.06;5080648;28;45533;-59
2022/03/08 09:53:31;;;;;;;;;64.00;48.00;;;;;7.73;44.11;101398.69;5082573;28;45422;-59
2022/03/08 09:56:00;;;;;;;;;59.00;45.33;;;;;7.82;44.09;101398.38;5083818;27;45401;-59
2022/03/08 09:58:26;;;;;;;;;66.33;46.67;;;;;7.88;43.93;101399.88;5084408;27;45163;-59
2022/03/08 10:00:53;;;;;;;;;47.67;39.00;;;;;7.96;43.87;101393.44;5084327;27;45636;-59
2022/03/08 10:03:30;;;;;;;;;61.00;45.00;;;;;8.08;43.92;101387.72;5083532;28;45655;-59
2022/03/08 10:05:56;;;;;;;;;60.00;45.00;;;;;8.13;43.57;101388.38;5091102;27;45315;-59
2022/03/08 10:08:22;;;;;;;;;64.00;47.33;;;;;8.16;43.56;101391.84;5104626;27;45626;-59
2022/03/08 10:11:01;;;;;;;;;60.33;44.67;;;;;8.20;43.57;101385.53;5104396;27;45321;-59
2022/03/08 10:13:32;;;;;;;;;49.67;42.67;;;;;8.26;43.49;101380.91;5104124;27;45320;-59
2022/03/08 10:16:09;;;;;;;;;71.00;50.33;;;;;8.34;43.86;101383.22;5104329;27;45473;-59
2022/03/08 10:18:37;;;;;;;;;66.67;49.67;;;;;8.39;43.44;101376.91;5086279;27;45277;-59
2022/03/08 10:21:03;;;;;;;;;62.67;48.33;;;;;8.47;43.48;101381.88;5104215;27;45476;-58
2022/03/08 10:23:39;;;;;;;;;64.67;43.33;;;;;8.53;43.54;101376.38;5104154;27;46143;-59
2022/03/08 10:26:05;;;;;;;;;60.00;48.00;;;;;8.62;43.39;101377.78;5103871;27;45448;-59
2022/03/08 10:28:30;;;;;;;;;68.33;48.67;;;;;8.72;43.51;101367.72;5104275;27;45383;-59
2022/03/08 10:30:56;;;;;;;;;63.67;49.67;;;;;8.78;43.21;101375.38;5103974;27;45584;-59
2022/03/08 10:33:33;;;;;;;;;53.75;43.50;;;;;8.86;43.29;101368.88;5072027;27;46028;-59
2022/03/08 10:35:59;;;;;;;;;67.33;50.33;;;;;8.94;42.76;101366.78;5088529;27;45174;-59
2022/03/08 10:38:24;;;;;;;;;71.67;48.33;;;;;8.98;42.95;101364.84;5083647;27;45316;-59
2022/03/08 10:40:50;;;;;;;;;66.00;47.67;;;;;9.06;42.97;101365.38;5087721;27;45210;-59
2022/03/08 10:43:17;;;;;;;;;71.33;50.00;;;;;9.11;42.72;101366.03;5096001;27;45283;-59
2022/03/08 10:45:49;;;;;;;;;56.33;45.33;;;;;9.16;42.58;101363.19;5082705;27;45402;-59
2022/03/08 10:48:18;;;;;;;;;72.33;52.00;;;;;9.22;42.46;101362.94;5083346;27;45304;-60
2022/03/08 10:50:44;;;;;;;;;59.00;48.00;;;;;9.30;42.58;101355.56;5083590;28;45311;-59
2022/03/08 10:53:12;;;;;;;;;63.33;48.67;;;;;9.36;42.84;101359.72;5082753;27;46148;-59
2022/03/08 10:55:50;;;;;;;;;70.00;49.00;;;;;9.41;42.56;101355.13;5082535;27;45295;-59
2022/03/08 10:58:17;;;;;;;;;66.67;49.00;;;;;9.45;42.70;101351.41;5083498;27;45400;-59
2022/03/08 11:00:53;;;;;;;;;60.00;45.00;;;;;9.52;42.32;101352.84;5082973;28;45596;-59
2022/03/08 11:03:21;;;;;;;;;66.33;46.33;;;;;9.56;41.85;101346.53;5082796;28;46110;-59
2022/03/08 11:05:53;;;;;;;;;58.50;43.50;;;;;9.55;41.65;101362.38;5082623;28;45370;-59
2022/03/08 11:08:20;;;;;;;;;69.00;50.00;;;;;9.54;41.69;101350.16;5083153;27;45385;-58
2022/03/08 11:10:47;;;;;;;;;73.25;48.25;;;;;9.57;41.87;101350.03;5082994;28;45392;-59
2022/03/08 11:13:16;;;;;;;;;66.00;49.00;;;;;9.57;41.77;101335.09;5082837;28;46301;-58